createdAt,value
2023-05-08T00:00:24.312Z,1757.00
2023-05-08T00:01:24.346Z,1775.00
2023-05-08T00:02:24.487Z,1788.00
2023-05-08T00:03:24.488Z,1770.00
2023-05-08T00:04:24.563Z,1736.00
2023-05-08T00:05:24.440Z,1728.00
2023-05-08T00:06:24.484Z,1715.00
2023-05-08T00:07:24.506Z,1734.00
2023-05-08T00:08:24.552Z,1753.00
2023-05-08T00:09:24.580Z,1754.00
2023-05-08T00:10:24.694Z,1748.00
2023-05-08T00:11:24.631Z,1780.00
2023-05-08T00:12:24.653Z,1772.00
2023-05-08T00:13:24.724Z,1753.00
2023-05-08T00:14:24.695Z,1762.00
2023-05-08T00:15:24.718Z,1726.00
2023-05-08T00:16:24.789Z,1739.00
2023-05-08T00:17:24.758Z,1750.00
2023-05-08T00:18:24.756Z,1755.00
2023-05-08T00:19:24.778Z,1772.00
2023-05-08T00:20:24.811Z,1747.00
2023-05-08T00:21:24.864Z,1733.00
2023-05-08T00:22:24.840Z,1761.00
2023-05-08T00:23:24.860Z,1764.00
2023-05-08T00:24:24.908Z,1774.00
2023-05-08T00:25:24.906Z,1744.00
2023-05-08T00:26:24.944Z,1739.00
2023-05-08T00:27:24.960Z,1731.00
2023-05-08T00:28:24.976Z,1748.00
2023-05-08T00:29:24.985Z,1744.00
2023-05-08T00:30:25.012Z,1732.00
2023-05-08T00:31:25.102Z,1708.00
2023-05-08T00:32:25.186Z,1744.00
2023-05-08T00:33:25.078Z,1759.00
2023-05-08T00:34:25.094Z,1730.00
2023-05-08T00:35:25.091Z,1744.00
2023-05-08T00:36:25.114Z,1740.00
2023-05-08T00:37:25.132Z,1718.00
2023-05-08T00:38:25.126Z,1725.00
2023-05-08T00:39:25.134Z,1719.00
2023-05-08T00:40:25.153Z,1685.00
2023-05-08T00:41:25.173Z,1687.00
2023-05-08T00:42:25.192Z,1710.00
2023-05-08T00:43:25.197Z,1725.00
2023-05-08T00:44:25.194Z,1741.00
2023-05-08T00:45:25.235Z,1731.00
2023-05-08T00:46:25.193Z,1739.00
2023-05-08T00:47:25.249Z,1733.00
2023-05-08T00:48:25.214Z,1721.00
2023-05-08T00:49:25.224Z,1714.00
2023-05-08T00:50:25.221Z,1730.00
2023-05-08T00:51:25.258Z,1720.00
2023-05-08T00:52:25.234Z,1725.00
2023-05-08T00:53:25.261Z,1728.00
2023-05-08T00:54:25.238Z,1726.00
2023-05-08T00:55:25.235Z,1743.00
2023-05-08T00:56:25.236Z,1734.00
2023-05-08T00:57:25.220Z,1705.00
2023-05-08T00:58:25.220Z,1717.00
2023-05-08T00:59:25.210Z,1688.00
2023-05-08T01:00:25.204Z,1698.00
2023-05-08T01:01:25.259Z,1708.00
2023-05-08T01:02:25.319Z,1714.00
2023-05-08T01:03:25.280Z,1698.00
2023-05-08T01:04:25.200Z,1726.00
2023-05-08T01:05:25.206Z,1739.00
2023-05-08T01:06:25.199Z,1742.00
2023-05-08T01:07:25.207Z,1743.00
2023-05-08T01:08:25.198Z,1727.00
2023-05-08T01:09:25.216Z,1733.00
2023-05-08T01:10:25.178Z,1742.00
2023-05-08T01:11:25.202Z,1752.00
2023-05-08T01:12:25.197Z,1769.00
2023-05-08T01:13:25.312Z,1746.00
2023-05-08T01:14:25.215Z,1751.00
2023-05-08T01:15:25.201Z,1757.00
2023-05-08T01:16:25.177Z,1740.00
2023-05-08T01:17:25.184Z,1750.00
2023-05-08T01:18:25.189Z,1746.00
2023-05-08T01:19:25.173Z,1762.00
2023-05-08T01:20:25.165Z,1764.00
2023-05-08T01:21:25.173Z,1760.00
2023-05-08T01:22:25.182Z,1762.00
2023-05-08T01:23:25.178Z,1785.00
2023-05-08T01:24:25.185Z,1794.00
2023-05-08T01:25:25.173Z,1784.00
2023-05-08T01:26:25.183Z,1765.00
2023-05-08T01:27:25.151Z,1782.00
2023-05-08T01:28:25.204Z,1756.00
2023-05-08T01:29:25.184Z,1784.00
2023-05-08T01:30:25.152Z,1785.00
2023-05-08T01:31:25.154Z,1770.00
2023-05-08T01:32:25.183Z,1777.00
2023-05-08T01:33:25.241Z,1761.00
2023-05-08T01:34:25.181Z,1769.00
2023-05-08T01:35:25.130Z,1805.00
2023-05-08T01:36:25.128Z,1817.00
2023-05-08T01:37:25.122Z,1797.00
2023-05-08T01:38:25.115Z,1798.00
2023-05-08T01:39:25.124Z,1794.00
2023-05-08T01:40:25.102Z,1810.00
2023-05-08T01:41:25.096Z,1829.00
2023-05-08T01:42:25.117Z,1824.00
2023-05-08T01:43:25.093Z,1826.00
2023-05-08T01:44:25.107Z,1820.00
2023-05-08T01:45:25.072Z,1817.00
2023-05-08T01:46:25.105Z,1803.00
2023-05-08T01:47:25.097Z,1806.00
2023-05-08T01:48:25.073Z,1809.00
2023-05-08T01:49:25.069Z,1811.00
2023-05-08T01:50:25.058Z,1805.00
2023-05-08T01:51:25.080Z,1814.00
2023-05-08T01:52:25.037Z,1814.00
2023-05-08T01:53:25.032Z,1814.00
2023-05-08T01:54:25.052Z,1797.00
2023-05-08T01:55:25.049Z,1819.00
2023-05-08T01:56:25.045Z,1803.00
2023-05-08T01:57:25.041Z,1797.00
2023-05-08T01:58:25.018Z,1818.00
2023-05-08T01:59:25.031Z,1836.00
2023-05-08T02:00:25.015Z,1832.00
2023-05-08T02:01:25.024Z,1832.00
2023-05-08T02:02:25.059Z,1834.00
2023-05-08T02:03:25.070Z,1818.00
2023-05-08T02:04:25.088Z,1816.00
2023-05-08T02:05:25.008Z,1818.00
2023-05-08T02:06:25.020Z,1823.00
2023-05-08T02:07:25.004Z,1854.00
2023-05-08T02:08:24.994Z,1855.00
2023-05-08T02:09:25.025Z,1840.00
2023-05-08T02:10:24.974Z,1859.00
2023-05-08T02:11:24.964Z,1840.00
2023-05-08T02:12:24.962Z,1869.00
2023-05-08T02:13:25.038Z,1890.00
2023-05-08T02:14:24.989Z,1884.00
2023-05-08T02:15:24.970Z,1893.00
2023-05-08T02:16:24.987Z,1885.00
2023-05-08T02:17:24.993Z,1901.00
2023-05-08T02:18:24.979Z,1905.00
2023-05-08T02:19:25.014Z,1915.00
2023-05-08T02:20:25.003Z,1921.00
2023-05-08T02:21:24.995Z,1934.00
2023-05-08T02:22:24.994Z,1927.00
2023-05-08T02:23:24.979Z,1954.00
2023-05-08T02:24:24.996Z,1944.00
2023-05-08T02:25:24.969Z,1960.00
2023-05-08T02:26:24.990Z,1956.00
2023-05-08T02:27:24.971Z,1959.00
2023-05-08T02:28:24.989Z,1970.00
2023-05-08T02:29:24.962Z,1964.00
2023-05-08T02:30:24.981Z,1962.00
2023-05-08T02:31:24.991Z,1971.00
2023-05-08T02:32:25.002Z,1978.00
2023-05-08T02:33:24.949Z,1976.00
2023-05-08T02:34:24.959Z,1981.00
2023-05-08T02:35:24.941Z,1996.00
2023-05-08T02:36:24.970Z,1994.00
2023-05-08T02:37:24.977Z,1994.00
2023-05-08T02:38:24.946Z,1995.00
2023-05-08T02:39:24.951Z,1988.00
2023-05-08T02:40:24.959Z,1999.00
2023-05-08T02:41:24.932Z,2010.00
2023-05-08T02:42:24.938Z,2018.00
2023-05-08T02:43:24.932Z,2016.00
2023-05-08T02:44:24.926Z,2022.00
2023-05-08T02:45:24.927Z,2030.00
2023-05-08T02:46:24.954Z,2015.00
2023-05-08T02:47:24.932Z,1991.00
2023-05-08T02:48:24.943Z,2001.00
2023-05-08T02:49:24.905Z,2007.00
2023-05-08T02:50:24.894Z,2000.00
2023-05-08T02:51:24.881Z,2008.00
2023-05-08T02:52:24.906Z,2011.00
2023-05-08T02:53:24.994Z,2016.00
2023-05-08T02:54:24.870Z,2003.00
2023-05-08T02:55:24.869Z,2012.00
2023-05-08T02:56:24.886Z,1999.00
2023-05-08T02:57:24.885Z,1994.00
2023-05-08T02:58:24.898Z,2007.00
2023-05-08T02:59:24.861Z,1985.00
2023-05-08T03:00:24.857Z,1986.00
2023-05-08T03:01:24.923Z,1977.00
2023-05-08T03:02:24.975Z,1973.00
2023-05-08T03:03:24.999Z,1946.00
2023-05-08T03:04:24.831Z,1946.00
2023-05-08T03:05:24.853Z,1962.00
2023-05-08T03:06:24.843Z,1975.00
2023-05-08T03:07:24.827Z,1983.00
2023-05-08T03:08:24.819Z,1963.00
2023-05-08T03:09:24.811Z,1947.00
2023-05-08T03:10:24.797Z,1938.00
2023-05-08T03:11:24.796Z,1924.00
2023-05-08T03:12:24.808Z,1908.00
2023-05-08T03:13:24.908Z,1884.00
2023-05-08T03:14:24.792Z,1906.00
2023-05-08T03:15:24.792Z,1895.00
2023-05-08T03:16:24.842Z,1908.00
2023-05-08T03:17:24.788Z,1910.00
2023-05-08T03:18:24.757Z,1896.00
2023-05-08T03:19:24.749Z,1892.00
2023-05-08T03:20:24.768Z,1901.00
2023-05-08T03:21:24.752Z,1897.00
2023-05-08T03:22:24.750Z,1877.00
2023-05-08T03:23:24.772Z,1896.00
2023-05-08T03:24:24.748Z,1878.00
2023-05-08T03:25:24.762Z,1880.00
2023-05-08T03:26:24.743Z,1858.00
2023-05-08T03:27:24.745Z,1866.00
2023-05-08T03:28:24.730Z,1855.00
2023-05-08T03:29:24.745Z,1854.00
2023-05-08T03:30:24.721Z,1863.00
2023-05-08T03:31:24.731Z,1870.00
2023-05-08T03:32:24.713Z,1865.00
2023-05-08T03:33:24.720Z,1835.00
2023-05-08T03:34:24.696Z,1827.00
2023-05-08T03:35:24.717Z,1838.00
2023-05-08T03:36:24.682Z,1841.00
2023-05-08T03:38:24.679Z,1835.00
2023-05-08T03:39:24.687Z,1821.00
2023-05-08T03:40:24.685Z,1820.00
2023-05-08T03:41:24.700Z,1824.00
2023-05-08T03:42:24.679Z,1791.00
2023-05-08T03:43:24.655Z,1811.00
2023-05-08T03:44:24.678Z,1801.00
2023-05-08T03:45:24.681Z,1802.00
2023-05-08T03:46:24.725Z,1809.00
2023-05-08T03:47:24.732Z,1802.00
2023-05-08T03:48:24.691Z,1805.00
2023-05-08T03:49:24.691Z,1801.00
2023-05-08T03:50:24.673Z,1801.00
2023-05-08T03:51:24.661Z,1782.00
2023-05-08T03:52:24.673Z,1778.00
2023-05-08T03:53:24.684Z,1768.00
2023-05-08T03:54:24.689Z,1764.00
2023-05-08T03:55:24.682Z,1742.00
2023-05-08T03:56:26.046Z,1760.00
2023-05-08T03:57:24.699Z,1773.00
2023-05-08T03:58:24.699Z,1768.00
2023-05-08T03:59:24.702Z,1757.00
2023-05-08T04:00:24.704Z,1730.00
2023-05-08T04:01:24.685Z,1747.00
2023-05-08T04:02:24.784Z,1748.00
2023-05-08T04:03:24.750Z,1761.00
2023-05-08T04:04:24.667Z,1771.00
2023-05-08T04:05:24.703Z,1777.00
2023-05-08T04:06:25.189Z,1779.00
2023-05-08T04:07:24.668Z,1771.00
2023-05-08T04:08:24.651Z,1774.00
2023-05-08T04:09:24.663Z,1758.00
2023-05-08T04:10:24.644Z,1747.00
2023-05-08T04:11:24.657Z,1754.00
2023-05-08T04:12:24.696Z,1723.00
2023-05-08T04:13:24.911Z,1735.00
2023-05-08T04:14:24.658Z,1750.00
2023-05-08T04:15:24.648Z,1738.00
2023-05-08T04:16:24.668Z,1748.00
2023-05-08T04:17:24.675Z,1731.00
2023-05-08T04:18:24.619Z,1731.00
2023-05-08T04:19:24.896Z,1717.00
2023-05-08T04:20:24.606Z,1710.00
2023-05-08T04:21:24.611Z,1704.00
2023-05-08T04:22:24.599Z,1726.00
2023-05-08T04:23:24.615Z,1729.00
2023-05-08T04:24:24.611Z,1716.00
2023-05-08T04:25:24.595Z,1719.00
2023-05-08T04:26:24.583Z,1735.00
2023-05-08T04:27:24.590Z,1722.00
2023-05-08T04:28:24.581Z,1702.00
2023-05-08T04:29:24.580Z,1696.00
2023-05-08T04:30:24.557Z,1717.00
2023-05-08T04:31:24.582Z,1730.00
2023-05-08T04:32:24.731Z,1718.00
2023-05-08T04:33:24.574Z,1713.00
2023-05-08T04:34:24.564Z,1719.00
2023-05-08T04:35:24.559Z,1709.00
2023-05-08T04:36:24.525Z,1677.00
2023-05-08T04:37:24.549Z,1677.00
2023-05-08T04:38:24.537Z,1681.00
2023-05-08T04:39:24.523Z,1677.00
2023-05-08T04:40:24.534Z,1671.00
2023-05-08T04:41:24.553Z,1665.00
2023-05-08T04:42:24.541Z,1660.00
2023-05-08T04:43:24.500Z,1678.00
2023-05-08T04:44:24.503Z,1678.00
2023-05-08T04:45:24.506Z,1685.00
2023-05-08T04:46:24.539Z,1652.00
2023-05-08T04:47:24.550Z,1683.00
2023-05-08T04:48:24.485Z,1700.00
2023-05-08T04:49:24.495Z,1697.00
2023-05-08T04:50:24.485Z,1707.00
2023-05-08T04:51:24.462Z,1700.00
2023-05-08T04:52:24.504Z,1705.00
2023-05-08T04:53:24.480Z,1681.00
2023-05-08T04:54:24.474Z,1646.00
2023-05-08T04:55:24.477Z,1645.00
2023-05-08T04:56:24.459Z,1666.00
2023-05-08T04:57:24.450Z,1673.00
2023-05-08T04:58:24.448Z,1659.00
2023-05-08T04:59:24.447Z,1657.00
2023-05-08T05:00:24.460Z,1682.00
2023-05-08T05:01:24.482Z,1686.00
2023-05-08T05:02:24.488Z,1673.00
2023-05-08T05:03:24.548Z,1636.00
2023-05-08T05:04:24.438Z,1626.00
2023-05-08T05:05:24.457Z,1636.00
2023-05-08T05:06:24.460Z,1645.00
2023-05-08T05:07:24.439Z,1639.00
2023-05-08T05:08:24.442Z,1652.00
2023-05-08T05:09:24.454Z,1652.00
2023-05-08T05:10:24.445Z,1669.00
2023-05-08T05:11:24.446Z,1676.00
2023-05-08T05:12:24.473Z,1647.00
2023-05-08T05:13:24.561Z,1637.00
2023-05-08T05:14:24.448Z,1644.00
2023-05-08T05:15:24.424Z,1651.00
2023-05-08T05:16:24.497Z,1647.00
2023-05-08T05:17:24.470Z,1654.00
2023-05-08T05:18:24.436Z,1640.00
2023-05-08T05:19:24.414Z,1650.00
2023-05-08T05:20:24.438Z,1634.00
2023-05-08T05:21:24.427Z,1664.00
2023-05-08T05:22:24.451Z,1664.00
2023-05-08T05:23:24.430Z,1657.00
2023-05-08T05:24:24.414Z,1653.00
2023-05-08T05:25:24.412Z,1643.00
2023-05-08T05:26:24.427Z,1620.00
2023-05-08T05:27:24.422Z,1594.00
2023-05-08T05:28:24.406Z,1633.00
2023-05-08T05:29:24.395Z,1609.00
2023-05-08T05:30:24.405Z,1656.00
2023-05-08T05:31:24.445Z,1716.00
2023-05-08T05:32:24.450Z,1711.00
2023-05-08T05:33:24.408Z,1778.00
2023-05-08T05:34:24.398Z,1879.00
2023-05-08T05:35:25.741Z,1975.00
2023-05-08T05:36:25.226Z,2026.00
2023-05-08T05:37:24.438Z,2059.00
2023-05-08T05:38:24.457Z,2069.00
2023-05-08T05:39:24.469Z,2093.00
2023-05-08T05:40:24.510Z,2158.00
2023-05-08T05:41:24.544Z,2218.00
2023-05-08T05:42:24.575Z,2192.00
2023-05-08T05:43:24.585Z,2195.00
2023-05-08T05:44:24.632Z,2218.00
2023-05-08T05:45:24.673Z,2259.00
2023-05-08T05:46:24.720Z,2325.00
2023-05-08T05:47:24.872Z,2379.00
2023-05-08T05:48:24.881Z,2419.00
2023-05-08T05:49:24.901Z,2365.00
2023-05-08T05:50:24.957Z,2385.00
2023-05-08T05:51:24.986Z,2442.00
2023-05-08T05:52:25.030Z,2339.00
2023-05-08T05:53:25.068Z,2429.00
2023-05-08T05:54:25.110Z,2499.00
2023-05-08T05:55:25.162Z,2566.00
2023-05-08T05:56:25.230Z,2615.00
2023-05-08T05:57:25.293Z,2624.00
2023-05-08T05:58:25.339Z,2654.00
2023-05-08T05:59:25.374Z,2676.00
2023-05-08T06:00:25.419Z,2600.00
2023-05-08T06:01:25.498Z,2599.00
2023-05-08T06:02:25.636Z,2442.00
2023-05-08T06:03:25.687Z,2384.00
2023-05-08T06:04:25.673Z,2329.00
2023-05-08T06:05:25.637Z,2266.00
2023-05-08T06:06:25.654Z,2242.00
2023-05-08T06:07:25.675Z,2124.00
2023-05-08T06:08:25.695Z,2136.00
2023-05-08T06:09:25.722Z,2150.00
2023-05-08T06:10:25.753Z,2134.00
2023-05-08T06:11:25.793Z,2092.00
2023-05-08T06:12:25.825Z,2060.00
2023-05-08T06:13:25.986Z,2022.00
2023-05-08T06:14:25.869Z,2004.00
2023-05-08T06:15:25.892Z,2096.00
2023-05-08T06:16:25.954Z,2006.00
2023-05-08T06:17:25.991Z,1965.00
2023-05-08T06:18:25.986Z,1969.00
2023-05-08T06:19:25.983Z,1974.00
2023-05-08T06:20:26.581Z,1915.00
2023-05-08T06:21:26.002Z,1919.00
2023-05-08T06:22:26.004Z,1925.00
2023-05-08T06:23:25.984Z,1968.00
2023-05-08T06:24:25.979Z,2019.00
2023-05-08T06:25:25.994Z,2099.00
2023-05-08T06:26:25.957Z,2148.00
2023-05-08T06:27:25.946Z,2256.00
2023-05-08T06:28:25.993Z,2232.00
2023-05-08T06:29:25.976Z,2371.00
2023-05-08T06:30:26.043Z,2560.00
2023-05-08T06:31:26.056Z,2486.00
2023-05-08T06:32:26.068Z,2403.00
2023-05-08T06:33:26.935Z,2504.00
2023-05-08T06:34:26.077Z,2568.00
2023-05-08T06:35:26.312Z,2561.00
2023-05-08T06:36:26.143Z,2493.00
2023-05-08T06:37:26.198Z,2457.00
2023-05-08T06:38:26.165Z,2516.00
2023-05-08T06:39:26.208Z,2540.00
2023-05-08T06:40:26.221Z,2530.00
2023-05-08T06:41:26.250Z,2576.00
2023-05-08T06:42:26.300Z,2619.00
2023-05-08T06:43:26.366Z,2619.00
2023-05-08T06:44:26.435Z,2621.00
2023-05-08T06:45:26.482Z,2656.00
2023-05-08T06:46:26.631Z,2660.00
2023-05-08T06:47:26.625Z,2664.00
2023-05-08T06:48:26.684Z,2691.00
2023-05-08T06:49:26.708Z,2722.00
2023-05-08T06:50:26.807Z,2739.00
2023-05-08T06:51:26.811Z,2749.00
2023-05-08T06:52:26.874Z,2757.00
2023-05-08T06:53:26.919Z,2748.00
2023-05-08T06:54:27.000Z,2750.00
2023-05-08T06:55:27.263Z,2736.00
2023-05-08T06:56:27.078Z,2750.00
2023-05-08T06:57:27.167Z,2762.00
2023-05-08T06:58:27.184Z,2789.00
2023-05-08T06:59:27.232Z,2769.00
2023-05-08T07:00:27.273Z,2737.00
2023-05-08T07:01:27.357Z,2722.00
2023-05-08T07:02:27.432Z,2742.00
2023-05-08T07:03:27.424Z,2763.00
2023-05-08T07:04:27.531Z,2757.00
2023-05-08T07:05:27.511Z,2813.00
2023-05-08T07:06:27.524Z,2869.00
2023-05-08T07:07:27.570Z,3279.00
2023-05-08T07:08:27.592Z,3500.00
2023-05-08T07:09:27.629Z,3550.00
2023-05-08T07:10:27.671Z,3673.00
2023-05-08T07:11:27.679Z,3145.00
2023-05-08T07:12:27.721Z,3815.00
2023-05-08T07:13:27.875Z,4263.00
2023-05-08T07:14:27.770Z,4172.00
2023-05-08T07:15:27.950Z,4118.00
2023-05-08T07:16:27.867Z,3974.00
2023-05-08T07:17:27.940Z,3654.00
2023-05-08T07:18:27.898Z,3414.00
2023-05-08T07:19:27.931Z,3283.00
2023-05-08T07:20:27.960Z,3306.00
2023-05-08T07:21:27.986Z,3225.00
2023-05-08T07:22:28.057Z,3151.00
2023-05-08T07:23:28.002Z,3080.00
2023-05-08T07:24:28.044Z,2946.00
2023-05-08T07:25:28.366Z,2941.00
2023-05-08T07:26:28.072Z,2869.00
2023-05-08T07:27:28.127Z,2901.00
2023-05-08T07:28:28.123Z,2810.00
2023-05-08T07:29:28.154Z,2478.00
2023-05-08T07:30:28.217Z,2239.00
2023-05-08T07:31:28.284Z,2048.00
2023-05-08T07:32:28.345Z,1966.00
2023-05-08T07:33:28.340Z,2055.00
2023-05-08T07:34:28.354Z,2011.00
2023-05-08T07:35:28.373Z,2001.00
2023-05-08T07:36:28.384Z,2003.00
2023-05-08T07:37:28.385Z,1983.00
2023-05-08T07:38:28.416Z,1962.00
2023-05-08T07:39:28.383Z,1949.00
2023-05-08T07:40:28.779Z,1940.00
2023-05-08T07:41:28.409Z,1864.00
2023-05-08T07:42:28.367Z,1863.00
2023-05-08T07:43:28.777Z,1891.00
2023-05-08T07:44:28.362Z,1950.00
2023-05-08T07:45:28.375Z,2031.00
2023-05-08T07:46:28.407Z,2106.00
2023-05-08T07:47:28.420Z,2135.00
2023-05-08T07:48:28.463Z,2108.00
2023-05-08T07:49:28.461Z,2122.00
2023-05-08T07:50:28.513Z,2151.00
2023-05-08T07:51:28.539Z,2211.00
2023-05-08T07:52:28.572Z,2133.00
2023-05-08T07:53:28.561Z,2159.00
2023-05-08T07:54:28.580Z,2199.00
2023-05-08T07:55:28.595Z,2255.00
2023-05-08T07:56:28.620Z,2226.00
2023-05-08T07:57:28.617Z,2209.00
2023-05-08T07:58:28.661Z,2077.00
2023-05-08T07:59:28.659Z,2101.00
2023-05-08T08:00:28.677Z,2065.00
2023-05-08T08:01:28.658Z,2128.00
2023-05-08T08:02:28.728Z,2117.00
2023-05-08T08:03:28.816Z,2164.00
2023-05-08T08:04:28.784Z,2166.00
2023-05-08T08:05:28.791Z,2195.00
2023-05-08T08:06:28.741Z,2125.00
2023-05-08T08:07:28.783Z,2165.00
2023-05-08T08:08:29.292Z,2156.00
2023-05-08T08:09:28.859Z,2195.00
2023-05-08T08:10:28.917Z,2151.00
2023-05-08T08:11:28.894Z,2166.00
2023-05-08T08:12:28.954Z,2222.00
2023-05-08T08:13:29.440Z,2201.00
2023-05-08T08:14:28.946Z,2209.00
2023-05-08T08:15:29.017Z,2365.00
2023-05-08T08:16:29.016Z,2363.00
2023-05-08T08:17:29.307Z,2461.00
2023-05-08T08:18:29.337Z,2570.00
2023-05-08T08:19:29.083Z,2699.00
2023-05-08T08:20:29.136Z,2664.00
2023-05-08T08:21:29.205Z,2497.00
2023-05-08T08:22:29.246Z,2402.00
2023-05-08T08:23:29.306Z,2303.00
2023-05-08T08:24:29.366Z,2127.00
2023-05-08T08:25:29.795Z,2056.00
2023-05-08T08:26:29.383Z,2103.00
2023-05-08T08:27:29.428Z,2022.00
2023-05-08T08:28:29.406Z,2018.00
2023-05-08T08:29:29.484Z,2019.00
2023-05-08T08:30:29.397Z,1963.00
2023-05-08T08:31:29.473Z,1927.00
2023-05-08T08:32:29.444Z,1901.00
2023-05-08T08:33:29.452Z,1924.00
2023-05-08T08:34:29.475Z,1996.00
2023-05-08T08:35:29.530Z,2096.00
2023-05-08T08:36:29.565Z,2123.00
2023-05-08T08:37:29.598Z,2184.00
2023-05-08T08:38:29.582Z,2203.00
2023-05-08T08:39:29.583Z,2269.00
2023-05-08T08:40:29.582Z,2313.00
2023-05-08T08:41:29.584Z,2317.00
2023-05-08T08:42:29.617Z,2653.00
2023-05-08T08:43:29.819Z,2677.00
2023-05-08T08:44:29.712Z,2715.00
2023-05-08T08:45:29.814Z,2746.00
2023-05-08T08:46:29.798Z,2667.00
2023-05-08T08:47:29.959Z,2662.00
2023-05-08T08:48:29.869Z,2725.00
2023-05-08T08:49:29.956Z,2778.00
2023-05-08T08:50:30.011Z,3013.00
2023-05-08T08:51:30.067Z,2858.00
2023-05-08T08:52:30.131Z,2832.00
2023-05-08T08:53:30.190Z,2808.00
2023-05-08T08:54:30.207Z,2855.00
2023-05-08T08:55:30.269Z,3010.00
2023-05-08T08:56:30.325Z,2946.00
2023-05-08T08:57:30.354Z,2839.00
2023-05-08T08:58:30.425Z,2731.00
2023-05-08T08:59:30.478Z,2192.00
2023-05-08T09:00:30.535Z,1763.00
2023-05-08T09:01:30.695Z,1489.00
2023-05-08T09:02:30.682Z,1908.00
2023-05-08T09:03:30.779Z,2019.00
2023-05-08T09:04:30.601Z,2161.00
2023-05-08T09:05:30.806Z,2309.00
2023-05-08T09:06:30.651Z,2390.00
2023-05-08T09:07:30.697Z,2368.00
2023-05-08T09:08:30.728Z,2405.00
2023-05-08T09:09:30.755Z,2429.00
2023-05-08T09:10:30.771Z,2458.00
2023-05-08T09:11:30.852Z,2475.00
2023-05-08T09:12:30.905Z,2506.00
2023-05-08T09:13:31.169Z,2472.00
2023-05-08T09:14:31.018Z,2489.00
2023-05-08T09:15:31.068Z,2451.00
2023-05-08T09:16:31.186Z,2443.00
2023-05-08T09:17:31.278Z,2482.00
2023-05-08T09:18:31.193Z,2499.00
2023-05-08T09:19:31.259Z,2506.00
2023-05-08T09:20:31.286Z,2537.00
2023-05-08T09:21:31.347Z,2553.00
2023-05-08T09:22:31.377Z,2623.00
2023-05-08T09:23:31.832Z,2632.00
2023-05-08T09:24:31.438Z,2685.00
2023-05-08T09:25:31.494Z,2664.00
2023-05-08T09:26:31.525Z,2708.00
2023-05-08T09:27:31.558Z,2743.00
2023-05-08T09:28:31.810Z,2714.00
2023-05-08T09:29:31.631Z,2664.00
2023-05-08T09:30:31.644Z,2662.00
2023-05-08T09:31:32.703Z,2678.00
2023-05-08T09:32:31.737Z,2686.00
2023-05-08T09:33:31.923Z,2679.00
2023-05-08T09:34:31.753Z,2730.00
2023-05-08T09:35:31.768Z,2725.00
2023-05-08T09:36:31.848Z,2736.00
2023-05-08T09:37:31.828Z,2781.00
2023-05-08T09:38:31.839Z,2835.00
2023-05-08T09:39:31.865Z,2809.00
2023-05-08T09:40:31.853Z,2843.00
2023-05-08T09:41:31.889Z,2880.00
2023-05-08T09:42:31.881Z,2966.00
2023-05-08T09:43:31.918Z,2986.00
2023-05-08T09:44:31.907Z,2965.00
2023-05-08T09:45:32.226Z,2942.00
2023-05-08T09:46:31.975Z,2932.00
2023-05-08T09:47:32.038Z,2922.00
2023-05-08T09:48:31.945Z,2900.00
2023-05-08T09:49:32.036Z,2888.00
2023-05-08T09:50:31.979Z,2861.00
2023-05-08T09:51:31.970Z,2880.00
2023-05-08T09:52:31.986Z,2869.00
2023-05-08T09:53:32.000Z,2872.00
2023-05-08T09:54:32.005Z,2866.00
2023-05-08T09:55:31.996Z,2864.00
2023-05-08T09:56:32.021Z,2887.00
2023-05-08T09:57:31.996Z,2907.00
2023-05-08T09:58:32.007Z,2924.00
2023-05-08T09:59:34.108Z,2954.00
2023-05-08T10:00:32.021Z,2963.00
2023-05-08T10:01:32.085Z,2994.00
2023-05-08T10:02:32.042Z,3007.00
2023-05-08T10:03:32.398Z,2981.00
2023-05-08T10:04:32.053Z,2712.00
2023-05-08T10:05:32.493Z,2681.00
2023-05-08T10:06:32.361Z,2609.00
2023-05-08T10:07:32.091Z,2715.00
2023-05-08T10:08:32.096Z,2259.00
2023-05-08T10:09:46.861Z,1962.00
2023-05-08T10:10:33.124Z,1963.00
2023-05-08T10:11:32.126Z,1972.00
2023-05-08T10:12:32.124Z,2004.00
2023-05-08T10:13:32.137Z,2050.00
2023-05-08T10:14:32.140Z,2193.00
2023-05-08T10:15:32.075Z,2239.00
2023-05-08T10:16:32.173Z,2264.00
2023-05-08T10:17:32.163Z,2316.00
2023-05-08T10:18:32.076Z,2404.00
2023-05-08T10:19:32.053Z,2413.00
2023-05-08T10:20:32.053Z,2497.00
2023-05-08T10:21:32.423Z,2495.00
2023-05-08T10:22:32.037Z,2442.00
2023-05-08T10:23:32.025Z,2413.00
2023-05-08T10:24:32.039Z,2391.00
2023-05-08T10:25:32.007Z,2368.00
2023-05-08T10:26:32.037Z,2409.00
2023-05-08T10:27:32.031Z,2342.00
2023-05-08T10:28:32.337Z,2144.00
2023-05-08T10:29:32.046Z,2022.00
2023-05-08T10:30:32.057Z,2043.00
2023-05-08T10:31:32.133Z,2158.00
2023-05-08T10:32:32.149Z,2251.00
2023-05-08T10:33:32.481Z,2314.00
2023-05-08T10:34:32.137Z,2326.00
2023-05-08T10:35:32.163Z,2286.00
2023-05-08T10:36:32.168Z,2295.00
2023-05-08T10:37:32.254Z,2156.00
2023-05-08T10:38:32.207Z,1957.00
2023-05-08T10:39:32.184Z,1787.00
2023-05-08T10:40:32.197Z,1711.00
2023-05-08T10:41:32.227Z,1468.00
2023-05-08T10:42:32.262Z,1226.00
2023-05-08T10:43:32.263Z,1256.00
2023-05-08T10:44:32.312Z,1148.00
2023-05-08T10:45:32.337Z,1190.00
2023-05-08T10:46:32.399Z,892.00
2023-05-08T10:47:32.427Z,822.00
2023-05-08T10:48:32.441Z,804.00
2023-05-08T10:49:32.501Z,660.00
2023-05-08T10:50:32.557Z,633.00
2023-05-08T10:51:32.612Z,494.00
2023-05-08T10:52:32.666Z,458.00
2023-05-08T10:53:32.727Z,578.00
2023-05-08T10:54:32.777Z,636.00
2023-05-08T10:55:32.823Z,635.00
2023-05-08T10:56:32.904Z,641.00
2023-05-08T10:57:32.955Z,658.00
2023-05-08T10:58:33.021Z,591.00
2023-05-08T10:59:33.050Z,481.00
2023-05-08T11:00:33.083Z,521.00
2023-05-08T11:01:33.142Z,629.00
2023-05-08T11:02:33.282Z,675.00
2023-05-08T11:03:33.514Z,868.00
2023-05-08T11:04:33.426Z,919.00
2023-05-08T11:05:33.276Z,966.00
2023-05-08T11:06:33.305Z,1062.00
2023-05-08T11:07:33.367Z,1004.00
2023-05-08T11:08:33.451Z,1105.00
2023-05-08T11:09:33.517Z,1173.00
2023-05-08T11:10:33.597Z,1044.00
2023-05-08T11:11:33.620Z,1373.00
2023-05-08T11:12:33.646Z,1124.00
2023-05-08T11:13:33.703Z,1186.00
2023-05-08T11:14:33.773Z,1233.00
2023-05-08T11:15:33.808Z,1076.00
2023-05-08T11:16:34.432Z,1003.00
2023-05-08T11:17:33.969Z,776.00
2023-05-08T11:19:34.010Z,523.00
2023-05-08T11:20:33.965Z,479.00
2023-05-08T11:21:34.374Z,461.00
2023-05-08T11:22:33.949Z,419.00
2023-05-08T11:23:33.941Z,430.00
2023-05-08T11:24:33.925Z,501.00
2023-05-08T11:25:33.913Z,542.00
2023-05-08T11:26:33.917Z,561.00
2023-05-08T11:27:33.903Z,557.00
2023-05-08T11:28:34.609Z,606.00
2023-05-08T11:29:33.905Z,536.00
2023-05-08T11:30:33.902Z,505.00
2023-05-08T11:31:33.887Z,581.00
2023-05-08T11:32:33.867Z,623.00
2023-05-08T11:33:33.872Z,618.00
2023-05-08T11:34:33.863Z,603.00
2023-05-08T11:35:33.845Z,629.00
2023-05-08T11:36:33.917Z,643.00
2023-05-08T11:37:33.981Z,620.00
2023-05-08T11:38:34.069Z,650.00
2023-05-08T11:39:34.120Z,641.00
2023-05-08T11:40:34.170Z,599.00
2023-05-08T11:41:34.206Z,603.00
2023-05-08T11:42:34.297Z,602.00
2023-05-08T11:43:34.365Z,591.00
2023-05-08T11:44:34.377Z,600.00
2023-05-08T11:45:34.429Z,564.00
2023-05-08T11:46:34.568Z,620.00
2023-05-08T11:47:34.574Z,652.00
2023-05-08T11:48:34.621Z,745.00
2023-05-08T11:49:34.643Z,790.00
2023-05-08T11:50:34.688Z,750.00
2023-05-08T11:51:34.751Z,728.00
2023-05-08T11:52:34.798Z,660.00
2023-05-08T11:53:34.854Z,654.00
2023-05-08T11:54:34.929Z,622.00
2023-05-08T11:55:34.958Z,633.00
2023-05-08T11:56:35.003Z,647.00
2023-05-08T11:57:35.034Z,637.00
2023-05-08T11:58:35.083Z,617.00
2023-05-08T11:59:35.144Z,623.00
2023-05-08T12:00:35.249Z,657.00
2023-05-08T12:01:35.235Z,599.00
2023-05-08T12:02:35.350Z,654.00
2023-05-08T12:03:35.556Z,631.00
2023-05-08T12:04:35.460Z,633.00
2023-05-08T12:05:35.435Z,632.00
2023-05-08T12:06:35.514Z,650.00
2023-05-08T12:07:35.541Z,617.00
2023-05-08T12:08:35.606Z,591.00
2023-05-08T12:09:35.642Z,535.00
2023-05-08T12:10:35.701Z,518.00